createdAt,value
2023-04-08T00:01:38.135Z,67.83
2023-04-08T00:04:04.774Z,67.67
2023-04-08T00:06:31.334Z,66.71
2023-04-08T00:08:57.631Z,65.89
2023-04-08T00:11:23.952Z,67.59
2023-04-08T00:13:50.258Z,67.58
2023-04-08T00:16:16.551Z,66.22
2023-04-08T00:18:42.911Z,66.95
2023-04-08T00:21:09.213Z,66.52
2023-04-08T00:23:35.522Z,67.56
2023-04-08T00:26:01.839Z,67.22
2023-04-08T00:28:28.149Z,68.75
2023-04-08T00:30:54.488Z,66.57
2023-04-08T00:33:20.826Z,66.73
2023-04-08T00:35:47.153Z,66.20
2023-04-08T00:38:13.478Z,66.72
2023-04-08T00:40:39.805Z,66.17
2023-04-08T00:43:06.107Z,66.34
2023-04-08T00:45:32.414Z,65.84
2023-04-08T00:47:58.862Z,65.91
2023-04-08T00:50:25.189Z,66.52
2023-04-08T00:52:51.503Z,66.22
2023-04-08T00:55:17.876Z,66.72
2023-04-08T00:57:44.184Z,66.66
2023-04-08T01:00:10.486Z,66.44
2023-04-08T01:02:37.051Z,67.67
2023-04-08T01:05:03.631Z,65.96
2023-04-08T01:07:29.924Z,66.03
2023-04-08T01:09:56.247Z,65.88
2023-04-08T01:12:22.554Z,66.07
2023-04-08T01:14:48.844Z,66.16
2023-04-08T01:17:15.157Z,66.68
2023-04-08T01:19:41.450Z,66.86
2023-04-08T01:22:07.758Z,66.59
2023-04-08T01:24:34.077Z,66.56
2023-04-08T01:27:00.603Z,66.02
2023-04-08T01:29:26.936Z,66.76
2023-04-08T01:31:53.246Z,66.36
2023-04-08T01:34:19.544Z,67.11
2023-04-08T01:36:45.864Z,66.05
2023-04-08T01:39:12.221Z,64.88
2023-04-08T01:41:38.529Z,65.47
2023-04-08T01:44:04.833Z,66.75
2023-04-08T01:46:31.191Z,66.76
2023-04-08T01:48:57.534Z,67.22
2023-04-08T01:51:23.832Z,66.59
2023-04-08T01:53:50.153Z,66.16
2023-04-08T01:56:16.453Z,66.25
2023-04-08T01:58:42.899Z,66.41
2023-04-08T02:01:09.246Z,66.94
2023-04-08T02:03:35.692Z,67.07
2023-04-08T02:06:02.098Z,67.51
2023-04-08T02:08:28.412Z,67.16
2023-04-08T02:10:54.690Z,67.34
2023-04-08T02:13:21.010Z,66.10
2023-04-08T02:15:47.436Z,66.32
2023-04-08T02:18:13.799Z,66.75
2023-04-08T02:20:40.141Z,67.16
2023-04-08T02:23:06.455Z,67.25
2023-04-08T02:25:32.799Z,67.55
2023-04-08T02:27:59.145Z,67.92
2023-04-08T02:30:25.462Z,67.51
2023-04-08T02:32:51.870Z,68.08
2023-04-08T02:35:18.219Z,68.90
2023-04-08T02:37:44.563Z,69.03
2023-04-08T02:40:10.865Z,69.68
2023-04-08T02:42:37.164Z,68.94
2023-04-08T02:45:03.469Z,70.22
2023-04-08T02:47:29.754Z,70.09
2023-04-08T02:49:56.130Z,70.13
2023-04-08T02:52:22.463Z,70.62
2023-04-08T02:54:48.761Z,70.31
2023-04-08T02:57:15.066Z,70.27
2023-04-08T02:59:41.398Z,69.66
2023-04-08T03:02:07.778Z,69.64
2023-04-08T03:04:34.154Z,69.18
2023-04-08T03:07:00.519Z,68.94
2023-04-08T03:09:26.833Z,68.96
2023-04-08T03:11:53.147Z,68.92
2023-04-08T03:14:19.480Z,68.42
2023-04-08T03:16:45.815Z,68.42
2023-04-08T03:19:12.185Z,68.82
2023-04-08T03:21:38.503Z,68.86
2023-04-08T03:24:04.810Z,69.50
2023-04-08T03:26:31.105Z,70.11
2023-04-08T03:28:57.423Z,70.15
2023-04-08T03:31:23.949Z,70.21
2023-04-08T03:33:50.258Z,69.29
2023-04-08T03:36:16.579Z,70.03
2023-04-08T03:38:42.877Z,69.57
2023-04-08T03:41:09.168Z,69.70
2023-04-08T03:43:37.434Z,69.47
2023-04-08T03:46:04.332Z,69.82
2023-04-08T03:48:30.671Z,70.39
2023-04-08T03:50:56.998Z,69.66
2023-04-08T03:53:23.304Z,70.15
2023-04-08T03:55:49.625Z,69.81
2023-04-08T03:58:15.977Z,69.31
2023-04-08T04:00:42.301Z,70.08
2023-04-08T04:03:08.652Z,70.27
2023-04-08T04:05:35.028Z,70.23
2023-04-08T04:08:01.348Z,70.12
2023-04-08T04:10:27.655Z,70.32
2023-04-08T04:12:54.007Z,71.03
2023-04-08T04:15:20.304Z,70.08
2023-04-08T04:17:46.623Z,70.17
2023-04-08T04:20:12.957Z,70.62
2023-04-08T04:22:39.268Z,69.50
2023-04-08T04:25:05.582Z,70.76
2023-04-08T04:27:31.941Z,70.88
2023-04-08T04:29:58.245Z,70.12
2023-04-08T04:32:24.582Z,70.97
2023-04-08T04:34:50.931Z,70.75
2023-04-08T04:37:17.240Z,71.08
2023-04-08T04:39:43.540Z,71.25
2023-04-08T04:42:09.857Z,70.02
2023-04-08T04:44:36.170Z,69.63
2023-04-08T04:47:02.470Z,70.39
2023-04-08T04:49:28.786Z,70.54
2023-04-08T04:51:55.080Z,69.78
2023-04-08T04:54:21.383Z,70.13
2023-04-08T04:56:47.688Z,70.15
2023-04-08T04:59:13.964Z,70.07
2023-04-08T05:01:40.360Z,68.48
2023-04-08T05:04:06.780Z,70.10
2023-04-08T05:06:33.087Z,70.02
2023-04-08T05:08:59.411Z,69.76
2023-04-08T05:11:25.726Z,70.47
2023-04-08T05:13:52.023Z,70.39
2023-04-08T05:16:18.433Z,71.12
2023-04-08T05:18:44.824Z,71.16
2023-04-08T05:21:11.133Z,71.03
2023-04-08T05:23:37.445Z,71.71
2023-04-08T05:26:03.760Z,71.38
2023-04-08T05:28:30.055Z,70.58
2023-04-08T05:30:56.350Z,71.25
2023-04-08T05:33:22.707Z,70.90
2023-04-08T05:35:49.010Z,71.05
2023-04-08T05:38:15.401Z,70.91
2023-04-08T05:40:41.723Z,70.18
2023-04-08T05:43:08.023Z,69.70
2023-04-08T05:45:34.335Z,69.99
2023-04-08T05:48:00.731Z,70.94
2023-04-08T05:50:27.062Z,70.15
2023-04-08T05:52:53.370Z,70.71
2023-04-08T05:55:19.695Z,70.12
2023-04-08T05:57:46.004Z,69.94
2023-04-08T06:00:12.310Z,69.86
2023-04-08T06:02:39.016Z,71.09
2023-04-08T06:05:05.626Z,70.95
2023-04-08T06:07:32.148Z,71.33
2023-04-08T06:09:58.476Z,70.74
2023-04-08T06:12:24.786Z,71.08
2023-04-08T06:14:51.084Z,70.09
2023-04-08T06:17:17.395Z,71.02
2023-04-08T06:19:43.684Z,71.18
2023-04-08T06:22:10.003Z,70.38
2023-04-08T06:24:36.367Z,70.66
2023-04-08T06:27:02.685Z,70.66
2023-04-08T06:29:29.053Z,70.75
2023-04-08T06:31:55.483Z,70.26
2023-04-08T06:34:21.888Z,70.53
2023-04-08T06:36:48.177Z,70.97
2023-04-08T06:39:14.505Z,71.30
2023-04-08T06:41:40.799Z,71.18
2023-04-08T06:44:07.103Z,71.27
2023-04-08T06:46:33.424Z,71.63
2023-04-08T06:48:59.721Z,70.73
2023-04-08T06:51:26.057Z,71.00
2023-04-08T06:53:52.366Z,71.52
2023-04-08T06:56:18.665Z,70.85
2023-04-08T06:58:45.093Z,70.71
2023-04-08T07:01:11.444Z,71.77
2023-04-08T07:03:37.876Z,71.02
2023-04-08T07:06:04.500Z,70.80
2023-04-08T07:08:30.878Z,70.65
2023-04-08T07:10:57.204Z,69.98
2023-04-08T07:13:23.495Z,71.09
2023-04-08T07:15:49.848Z,71.47
2023-04-08T07:18:16.152Z,71.12
2023-04-08T07:20:42.437Z,70.68
2023-04-08T07:23:08.755Z,71.95
2023-04-08T07:25:35.059Z,70.24
2023-04-08T07:28:01.365Z,70.87
2023-04-08T07:30:27.732Z,69.64
2023-04-08T07:32:54.090Z,69.65
2023-04-08T07:35:20.437Z,69.35
2023-04-08T07:37:46.762Z,69.21
2023-04-08T07:40:13.068Z,69.61
2023-04-08T07:42:40.823Z,67.81
2023-04-08T07:45:07.243Z,68.66
2023-04-08T07:47:33.554Z,67.45
2023-04-08T07:49:59.888Z,67.84
2023-04-08T07:52:26.222Z,66.94
2023-04-08T07:54:52.517Z,66.79
2023-04-08T07:57:18.848Z,62.76
2023-04-08T07:59:45.220Z,63.92
2023-04-08T08:02:11.604Z,63.24
2023-04-08T08:04:38.145Z,62.38
2023-04-08T08:07:04.576Z,62.54
2023-04-08T08:09:32.091Z,64.68
2023-04-08T08:11:58.526Z,63.39
2023-04-08T08:14:24.849Z,63.77
2023-04-08T08:16:51.151Z,63.24
2023-04-08T08:19:17.455Z,64.88
2023-04-08T08:21:43.769Z,66.42
2023-04-08T08:24:10.074Z,64.83
2023-04-08T08:26:36.390Z,65.22
2023-04-08T08:29:02.723Z,63.73
2023-04-08T08:31:29.100Z,65.57
2023-04-08T08:33:55.445Z,63.71
2023-04-08T08:36:21.803Z,63.53
2023-04-08T08:38:48.102Z,61.73
2023-04-08T08:41:14.407Z,61.99
2023-04-08T08:43:40.719Z,63.61
2023-04-08T08:46:07.067Z,63.84
2023-04-08T08:48:33.428Z,61.09
2023-04-08T08:50:59.742Z,60.57
2023-04-08T08:53:26.045Z,61.30
2023-04-08T08:56:16.380Z,60.69
2023-04-08T08:58:38.643Z,59.64
2023-04-08T09:01:04.953Z,57.40
2023-04-08T09:03:31.395Z,57.49
2023-04-08T09:05:57.839Z,59.82
2023-04-08T09:08:24.140Z,58.21
2023-04-08T09:10:50.446Z,56.41
2023-04-08T09:13:16.766Z,55.49
2023-04-08T09:15:43.073Z,55.63
2023-04-08T09:18:09.579Z,55.63
2023-04-08T09:20:35.994Z,56.42
2023-04-08T09:23:02.344Z,57.05
2023-04-08T09:25:28.689Z,56.03
2023-04-08T09:27:55.035Z,55.65
2023-04-08T09:30:21.335Z,57.09
2023-04-08T09:32:47.710Z,56.00
2023-04-08T09:35:14.154Z,56.50
2023-04-08T09:37:40.459Z,53.81
2023-04-08T09:40:06.753Z,54.01
2023-04-08T09:42:33.118Z,54.06
2023-04-08T09:44:59.419Z,53.28
2023-04-08T09:47:25.735Z,53.56
2023-04-08T09:49:52.092Z,52.36
2023-04-08T09:52:18.403Z,53.25
2023-04-08T09:54:44.711Z,54.34
2023-04-08T09:57:11.116Z,53.62
2023-04-08T09:59:37.425Z,51.85
2023-04-08T10:02:03.810Z,52.50
2023-04-08T10:04:30.248Z,52.98
2023-04-08T10:06:56.599Z,52.68
2023-04-08T10:09:22.910Z,53.18
2023-04-08T10:11:49.244Z,52.29
2023-04-08T10:14:15.555Z,51.07
2023-04-08T10:16:41.907Z,50.44
2023-04-08T10:19:08.266Z,49.19
2023-04-08T10:21:34.590Z,48.34
2023-04-08T10:24:00.898Z,49.69
2023-04-08T10:26:27.247Z,50.51
2023-04-08T10:28:53.554Z,47.39
2023-04-08T10:31:19.882Z,48.29
2023-04-08T10:33:46.203Z,48.03
2023-04-08T10:36:12.567Z,48.40
2023-04-08T10:38:38.889Z,49.51
2023-04-08T10:41:05.370Z,50.66
2023-04-08T10:43:31.671Z,49.41
2023-04-08T10:45:58.024Z,49.32
2023-04-08T10:48:24.465Z,50.26
2023-04-08T10:50:50.784Z,48.88
2023-04-08T10:53:17.090Z,50.13
2023-04-08T10:55:43.413Z,47.10
2023-04-08T10:58:09.851Z,47.47
2023-04-08T11:00:36.153Z,46.99
2023-04-08T11:03:02.601Z,47.34
2023-04-08T11:05:28.984Z,47.37
2023-04-08T11:07:55.299Z,47.73
2023-04-08T11:10:21.630Z,48.35
2023-04-08T11:12:47.918Z,47.78
2023-04-08T11:15:14.217Z,49.46
2023-04-08T11:17:40.559Z,49.73
2023-04-08T11:20:06.883Z,50.20
2023-04-08T11:22:33.194Z,49.13
2023-04-08T11:24:59.521Z,50.45
2023-04-08T11:27:25.831Z,50.82
2023-04-08T11:29:52.166Z,48.35
2023-04-08T11:32:18.484Z,50.92
2023-04-08T11:34:44.780Z,49.77
2023-04-08T11:37:11.087Z,51.30
2023-04-08T11:39:37.417Z,51.62
2023-04-08T11:42:03.711Z,49.75
2023-04-08T11:44:30.012Z,51.52
2023-04-08T11:46:56.499Z,49.60
2023-04-08T11:49:22.819Z,48.53
2023-04-08T11:51:49.116Z,49.30
2023-04-08T11:54:15.475Z,49.48
2023-04-08T11:56:41.773Z,46.42
2023-04-08T11:59:08.091Z,47.88
2023-04-08T12:01:34.426Z,48.08
2023-04-08T12:04:00.894Z,49.13
2023-04-08T12:06:27.326Z,50.50
2023-04-08T12:08:53.710Z,51.15
2023-04-08T12:11:20.396Z,52.03
2023-04-08T12:13:46.726Z,51.85
2023-04-08T12:16:13.081Z,51.14
2023-04-08T12:18:39.447Z,51.73
2023-04-08T12:21:05.754Z,51.37
2023-04-08T12:23:32.075Z,51.15
2023-04-08T12:25:58.369Z,51.62
2023-04-08T12:28:24.663Z,50.85
2023-04-08T12:30:50.993Z,50.21
2023-04-08T12:33:17.288Z,50.86
2023-04-08T12:35:43.629Z,50.72
2023-04-08T12:38:10.035Z,50.47
2023-04-08T12:40:36.330Z,48.70
2023-04-08T12:43:02.626Z,50.04
2023-04-08T12:45:28.939Z,49.52
2023-04-08T12:47:55.321Z,49.04
2023-04-08T12:50:21.647Z,48.70
2023-04-08T12:52:47.962Z,49.30
2023-04-08T12:55:14.267Z,48.28
2023-04-08T12:57:40.568Z,50.33
2023-04-08T13:00:06.948Z,50.49
2023-04-08T13:02:33.277Z,52.78
2023-04-08T13:04:59.593Z,52.20
2023-04-08T13:07:25.956Z,53.79
2023-04-08T13:09:52.251Z,54.34
2023-04-08T13:12:18.552Z,53.70
2023-04-08T13:14:44.868Z,54.55
2023-04-08T13:17:11.186Z,54.36
2023-04-08T13:19:37.483Z,53.41
2023-04-08T13:22:03.802Z,52.35
2023-04-08T13:24:30.101Z,51.83
2023-04-08T13:26:56.401Z,51.86
2023-04-08T13:29:23.876Z,50.43
2023-04-08T13:31:50.209Z,51.02
2023-04-08T13:34:16.539Z,49.98
2023-04-08T13:36:42.873Z,49.41
2023-04-08T13:39:09.173Z,49.25
2023-04-08T13:41:35.470Z,48.97
2023-04-08T13:44:01.806Z,48.24
2023-04-08T13:46:28.136Z,50.92
2023-04-08T13:48:54.651Z,48.96
2023-04-08T13:51:21.144Z,48.49
2023-04-08T13:53:47.445Z,48.64
2023-04-08T13:56:13.743Z,50.71
2023-04-08T13:58:40.093Z,48.51
2023-04-08T14:01:06.407Z,49.05
2023-04-08T14:03:32.724Z,50.21
2023-04-08T14:06:01.582Z,48.26
2023-04-08T14:08:28.187Z,47.90
2023-04-08T14:10:54.496Z,47.52
2023-04-08T14:13:20.852Z,47.66
2023-04-08T14:15:47.208Z,48.58
2023-04-08T14:18:13.558Z,49.66
2023-04-08T14:20:39.882Z,48.17
2023-04-08T14:23:06.190Z,48.34
2023-04-08T14:25:32.511Z,49.04
2023-04-08T14:27:59.121Z,49.52
2023-04-08T14:30:25.474Z,49.48
2023-04-08T14:32:51.827Z,48.78
2023-04-08T14:35:18.183Z,48.00
2023-04-08T14:37:44.498Z,47.60
2023-04-08T14:40:10.838Z,48.20
2023-04-08T14:42:37.170Z,47.95
2023-04-08T14:45:03.482Z,48.13
2023-04-08T14:47:29.807Z,47.99
2023-04-08T14:49:56.143Z,47.89
2023-04-08T14:52:22.441Z,47.20
2023-04-08T14:54:48.751Z,47.74
2023-04-08T14:57:15.087Z,46.65
2023-04-08T14:59:41.393Z,46.78
2023-04-08T15:02:07.826Z,47.40
2023-04-08T15:04:34.306Z,48.17
2023-04-08T15:07:00.638Z,49.01
2023-04-08T15:09:26.946Z,48.93
2023-04-08T15:11:53.318Z,49.05
2023-04-08T15:14:19.619Z,48.71
2023-04-08T15:16:45.922Z,48.32
2023-04-08T15:19:12.259Z,47.10
2023-04-08T15:21:38.551Z,46.97
2023-04-08T15:24:04.864Z,45.92
2023-04-08T15:26:31.176Z,46.14
2023-04-08T15:28:57.520Z,46.57
2023-04-08T15:31:23.930Z,47.69
2023-04-08T15:33:50.637Z,48.07
2023-04-08T15:36:17.051Z,47.98
2023-04-08T15:38:43.381Z,48.75
2023-04-08T15:41:09.723Z,47.52
2023-04-08T15:43:36.022Z,48.42
2023-04-08T15:46:02.324Z,48.91
2023-04-08T15:48:28.667Z,49.48
2023-04-08T15:50:55.066Z,49.33
2023-04-08T15:53:21.394Z,48.64
2023-04-08T15:55:47.712Z,48.84
2023-04-08T15:58:14.015Z,48.98
2023-04-08T16:00:40.327Z,49.17
2023-04-08T16:03:06.912Z,49.10
2023-04-08T16:05:33.315Z,48.35
2023-04-08T16:07:59.617Z,48.59
2023-04-08T16:10:25.936Z,49.36
2023-04-08T16:12:52.249Z,49.27
2023-04-08T16:15:18.575Z,49.81
2023-04-08T16:17:44.995Z,50.84
2023-04-08T16:20:11.340Z,49.64
2023-04-08T16:22:37.647Z,48.51
2023-04-08T16:25:04.020Z,52.64
2023-04-08T16:27:30.318Z,53.59
2023-04-08T16:29:56.630Z,54.63
2023-04-08T16:32:23.033Z,53.69
2023-04-08T16:34:49.411Z,52.52
2023-04-08T16:37:15.711Z,53.34
2023-04-08T16:39:42.088Z,51.96
2023-04-08T16:42:08.388Z,52.55
2023-04-08T16:44:34.704Z,51.61
2023-04-08T16:47:01.027Z,50.76
2023-04-08T16:49:27.327Z,51.69
2023-04-08T16:51:53.638Z,51.69
2023-04-08T16:54:19.964Z,50.96
2023-04-08T16:56:46.274Z,51.33
2023-04-08T16:59:12.575Z,51.81
2023-04-08T17:01:38.934Z,51.83
2023-04-08T17:04:05.318Z,51.89
2023-04-08T17:06:31.635Z,51.39
2023-04-08T17:08:58.269Z,52.20
2023-04-08T17:11:24.696Z,51.61
2023-04-08T17:13:51.196Z,51.64
2023-04-08T17:16:17.751Z,50.85
2023-04-08T17:18:44.061Z,50.51
2023-04-08T17:21:10.373Z,49.62
2023-04-08T17:23:36.735Z,47.27
2023-04-08T17:26:03.036Z,47.92
2023-04-08T17:28:29.338Z,47.37
2023-04-08T17:30:55.655Z,46.52
2023-04-08T17:33:21.940Z,46.78
2023-04-08T17:35:48.256Z,46.91
2023-04-08T17:38:14.581Z,47.67
2023-04-08T17:40:40.900Z,47.14
2023-04-08T17:43:07.189Z,46.57
2023-04-08T17:45:33.539Z,46.82
2023-04-08T17:47:59.889Z,47.40
2023-04-08T17:50:26.223Z,47.38
2023-04-08T17:52:52.558Z,47.55
2023-04-08T17:55:18.881Z,47.84
2023-04-08T17:57:45.182Z,47.28
2023-04-08T18:00:11.508Z,47.93
2023-04-08T18:02:37.993Z,48.04
2023-04-08T18:05:04.411Z,48.01
2023-04-08T18:07:30.742Z,48.08
2023-04-08T18:09:57.039Z,48.08
2023-04-08T18:12:23.343Z,48.58
2023-04-08T18:14:49.666Z,48.73
2023-04-08T18:17:15.964Z,48.12
2023-04-08T18:19:42.264Z,47.81
2023-04-08T18:22:08.590Z,48.08
2023-04-08T18:24:34.883Z,47.46
2023-04-08T18:27:04.446Z,46.63
2023-04-08T18:29:31.411Z,47.09
2023-04-08T18:31:57.729Z,47.13
2023-04-08T18:34:24.041Z,47.73
2023-04-08T18:36:50.359Z,47.26
2023-04-08T18:39:16.650Z,47.40
2023-04-08T18:41:42.958Z,47.18
2023-04-08T18:44:09.276Z,47.37
2023-04-08T18:46:35.691Z,47.89
2023-04-08T18:49:02.086Z,47.75
2023-04-08T18:51:28.411Z,48.41
2023-04-08T18:53:54.707Z,48.65
2023-04-08T18:56:20.998Z,49.02
2023-04-08T18:58:47.321Z,49.09
2023-04-08T19:01:13.654Z,49.32
2023-04-08T19:03:40.047Z,49.08
2023-04-08T19:06:06.473Z,49.43
2023-04-08T19:08:32.773Z,49.55
2023-04-08T19:10:59.071Z,49.50
2023-04-08T19:13:25.385Z,49.63
2023-04-08T19:15:51.703Z,50.84
2023-04-08T19:18:18.146Z,51.05
2023-04-08T19:20:44.462Z,50.93
2023-04-08T19:23:10.778Z,51.51
2023-04-08T19:25:37.084Z,52.20
2023-04-08T19:28:03.410Z,51.69
2023-04-08T19:30:29.723Z,51.52
2023-04-08T19:32:56.053Z,52.31
2023-04-08T19:35:22.432Z,52.51
2023-04-08T19:37:48.729Z,52.79
2023-04-08T19:40:15.026Z,52.92
2023-04-08T19:42:41.349Z,53.11
2023-04-08T19:45:07.648Z,53.11
2023-04-08T19:47:33.983Z,53.26
2023-04-08T19:50:00.358Z,53.44
2023-04-08T19:52:26.683Z,53.56
2023-04-08T19:54:53.036Z,53.96
2023-04-08T19:57:19.405Z,53.93
2023-04-08T19:59:45.703Z,54.20
2023-04-08T20:02:12.080Z,54.47
2023-04-08T20:04:38.470Z,54.95
2023-04-08T20:07:04.835Z,54.87
2023-04-08T20:09:31.127Z,55.58
2023-04-08T20:11:57.457Z,55.60
2023-04-08T20:14:23.799Z,56.14
2023-04-08T20:16:50.085Z,55.64
2023-04-08T20:19:16.880Z,56.35
2023-04-08T20:21:43.177Z,56.52
2023-04-08T20:24:09.492Z,56.60
2023-04-08T20:26:35.793Z,57.45
2023-04-08T20:29:02.078Z,57.23
2023-04-08T20:31:28.433Z,57.56
2023-04-08T20:33:54.779Z,58.61
2023-04-08T20:36:21.128Z,59.55
2023-04-08T20:38:47.423Z,59.94
2023-04-08T20:41:13.794Z,60.25
2023-04-08T20:43:40.091Z,61.18
2023-04-08T20:46:06.400Z,61.73
2023-04-08T20:48:32.711Z,61.58
2023-04-08T20:50:59.015Z,62.15
2023-04-08T20:53:25.310Z,62.59
2023-04-08T20:55:51.632Z,64.02
2023-04-08T20:58:17.930Z,63.47
2023-04-08T21:00:44.283Z,63.58
2023-04-08T21:03:10.742Z,65.16
2023-04-08T21:05:37.159Z,65.06
2023-04-08T21:08:03.450Z,63.88
2023-04-08T21:10:29.788Z,64.18
2023-04-08T21:12:56.094Z,63.92
2023-04-08T21:15:22.425Z,64.43
2023-04-08T21:17:48.794Z,63.30
2023-04-08T21:20:15.095Z,62.69
2023-04-08T21:22:41.386Z,62.62
2023-04-08T21:25:07.746Z,62.99
2023-04-08T21:27:34.109Z,62.94
2023-04-08T21:30:00.429Z,63.01
2023-04-08T21:32:29.484Z,62.52
2023-04-08T21:34:56.433Z,62.89
2023-04-08T21:37:22.722Z,62.96
2023-04-08T21:39:49.043Z,63.12
2023-04-08T21:42:15.339Z,63.50
2023-04-08T21:44:41.646Z,63.98
2023-04-08T21:47:07.998Z,63.43
2023-04-08T21:49:34.296Z,63.36
2023-04-08T21:52:00.591Z,63.47
2023-04-08T21:54:26.912Z,62.92
2023-04-08T21:56:53.227Z,63.04
2023-04-08T21:59:19.520Z,62.73
2023-04-08T22:01:45.964Z,62.81
2023-04-08T22:04:12.383Z,62.59
2023-04-08T22:06:38.826Z,61.89
2023-04-08T22:09:05.140Z,62.11
2023-04-08T22:11:31.415Z,62.00
2023-04-08T22:13:57.720Z,62.67
2023-04-08T22:16:24.048Z,61.97
2023-04-08T22:18:50.599Z,62.83
2023-04-08T22:21:17.083Z,64.40
2023-04-08T22:23:43.390Z,63.76
2023-04-08T22:26:09.694Z,64.22
2023-04-08T22:28:35.992Z,64.28
2023-04-08T22:31:02.330Z,64.03
2023-04-08T22:33:28.643Z,63.48
2023-04-08T22:35:55.010Z,63.50
2023-04-08T22:38:21.322Z,63.61
2023-04-08T22:40:47.611Z,62.83
2023-04-08T22:43:13.895Z,63.18
2023-04-08T22:45:40.207Z,62.59
2023-04-08T22:48:06.620Z,62.42
2023-04-08T22:50:32.976Z,61.70
2023-04-08T22:52:59.319Z,61.93
2023-04-08T22:55:25.608Z,62.10
2023-04-08T22:57:51.902Z,61.34
2023-04-08T23:00:18.262Z,60.74
2023-04-08T23:02:44.630Z,61.27
2023-04-08T23:05:11.002Z,60.98
2023-04-08T23:07:37.314Z,61.09
2023-04-08T23:10:03.692Z,60.98
2023-04-08T23:12:29.999Z,61.96
2023-04-08T23:14:56.313Z,62.61
2023-04-08T23:17:22.717Z,63.08
2023-04-08T23:19:49.070Z,63.05
2023-04-08T23:22:15.371Z,62.17
2023-04-08T23:24:41.681Z,62.63
2023-04-08T23:27:07.973Z,63.11
2023-04-08T23:29:34.294Z,63.09
2023-04-08T23:32:00.616Z,63.53
2023-04-08T23:34:26.942Z,63.34
2023-04-08T23:36:53.281Z,63.79
2023-04-08T23:39:19.593Z,62.85
2023-04-08T23:41:45.915Z,63.65
2023-04-08T23:44:12.246Z,63.49
2023-04-08T23:46:38.601Z,63.71
2023-04-08T23:49:04.953Z,62.97
2023-04-08T23:51:31.282Z,63.85
2023-04-08T23:53:57.678Z,63.41
2023-04-08T23:56:23.987Z,63.70
2023-04-08T23:58:50.803Z,63.27
